Terminal Aerodrome Forecast
Issued by NWS

Home | Current Version | Previous Version | Text Only | Print | Product List | Glossary On
Versions: 1 2 3 4 5 6 7 8 9 10 11 12 13 14 15 16 17 18 19 20
000
FTUS43 KFGF 042324
TAFTVF
TAF
KTVF 042324Z 0500/0524 13008KT P6SM OVC080
      TEMPO 0500/0502 5SM -TSRA BKN040CB
     FM050600 VRB06KT P6SM BKN080
      TEMPO 0510/0512 3SM BR BKN010
     FM051500 05007KT P6SM BKN040
      AMD LTD TO CLD VIS AND WIND=

USA.gov is the U.S. government's official web portal to all federal, state and local government web resources and services.